sensor_id;sensor_type;location;lat;lon;timestamp;P1;durP1;ratioP1;P2;durP2;ratioP2
26594;SDS011;14238;49.496;8.154;2022-12-07T00:00:53;8.10;;;7.03;;
26594;SDS011;14238;49.496;8.154;2022-12-07T00:03:19;9.30;;;7.60;;
26594;SDS011;14238;49.496;8.154;2022-12-07T00:05:44;9.57;;;8.37;;
26594;SDS011;14238;49.496;8.154;2022-12-07T00:08:10;7.97;;;7.17;;
26594;SDS011;14238;49.496;8.154;2022-12-07T00:10:35;8.33;;;7.53;;
26594;SDS011;14238;49.496;8.154;2022-12-07T00:13:01;9.43;;;7.73;;
26594;SDS011;14238;49.496;8.154;2022-12-07T00:15:26;10.10;;;7.70;;
26594;SDS011;14238;49.496;8.154;2022-12-07T00:17:52;7.67;;;6.87;;
26594;SDS011;14238;49.496;8.154;2022-12-07T00:20:17;8.10;;;6.70;;
26594;SDS011;14238;49.496;8.154;2022-12-07T00:22:43;8.10;;;7.30;;
26594;SDS011;14238;49.496;8.154;2022-12-07T00:25:08;8.50;;;7.30;;
26594;SDS011;14238;49.496;8.154;2022-12-07T00:27:34;10.10;;;7.90;;
26594;SDS011;14238;49.496;8.154;2022-12-07T00:30:00;7.27;;;6.53;;
26594;SDS011;14238;49.496;8.154;2022-12-07T00:32:26;8.50;;;7.43;;
26594;SDS011;14238;49.496;8.154;2022-12-07T00:34:51;8.63;;;7.73;;
26594;SDS011;14238;49.496;8.154;2022-12-07T00:37:17;8.27;;;7.47;;
26594;SDS011;14238;49.496;8.154;2022-12-07T00:39:42;8.50;;;7.37;;
26594;SDS011;14238;49.496;8.154;2022-12-07T00:42:08;9.07;;;8.17;;
26594;SDS011;14238;49.496;8.154;2022-12-07T00:44:33;10.37;;;7.30;;
26594;SDS011;14238;49.496;8.154;2022-12-07T00:46:59;8.13;;;7.00;;
26594;SDS011;14238;49.496;8.154;2022-12-07T00:49:24;8.67;;;6.80;;
26594;SDS011;14238;49.496;8.154;2022-12-07T00:51:50;7.73;;;7.03;;
26594;SDS011;14238;49.496;8.154;2022-12-07T00:54:15;8.57;;;6.97;;
26594;SDS011;14238;49.496;8.154;2022-12-07T00:56:41;9.47;;;7.60;;
26594;SDS011;14238;49.496;8.154;2022-12-07T00:59:07;7.90;;;7.10;;
26594;SDS011;14238;49.496;8.154;2022-12-07T01:01:36;7.40;;;6.47;;
26594;SDS011;14238;49.496;8.154;2022-12-07T01:04:02;8.13;;;6.93;;
26594;SDS011;14238;49.496;8.154;2022-12-07T01:06:28;8.57;;;7.10;;
26594;SDS011;14238;49.496;8.154;2022-12-07T01:08:54;7.83;;;6.00;;
26594;SDS011;14238;49.496;8.154;2022-12-07T01:11:21;7.60;;;6.83;;
26594;SDS011;14238;49.496;8.154;2022-12-07T01:13:49;8.07;;;7.27;;
26594;SDS011;14238;49.496;8.154;2022-12-07T01:16:19;7.10;;;6.10;;
26594;SDS011;14238;49.496;8.154;2022-12-07T01:18:47;7.00;;;6.27;;
26594;SDS011;14238;49.496;8.154;2022-12-07T01:21:22;7.00;;;6.37;;
26594;SDS011;14238;49.496;8.154;2022-12-07T01:23:49;8.13;;;7.07;;
26594;SDS011;14238;49.496;8.154;2022-12-07T01:26:16;6.00;;;5.50;;
26594;SDS011;14238;49.496;8.154;2022-12-07T01:28:44;7.33;;;6.63;;
26594;SDS011;14238;49.496;8.154;2022-12-07T01:31:11;8.53;;;7.00;;
26594;SDS011;14238;49.496;8.154;2022-12-07T01:33:48;6.87;;;6.10;;
26594;SDS011;14238;49.496;8.154;2022-12-07T01:36:20;6.50;;;5.90;;
26594;SDS011;14238;49.496;8.154;2022-12-07T01:38:58;5.70;;;5.20;;
26594;SDS011;14238;49.496;8.154;2022-12-07T01:41:30;6.60;;;5.67;;
26594;SDS011;14238;49.496;8.154;2022-12-07T01:46:45;7.40;;;6.70;;
26594;SDS011;14238;49.496;8.154;2022-12-07T01:49:17;7.70;;;6.57;;
26594;SDS011;14238;49.496;8.154;2022-12-07T01:51:50;7.40;;;6.30;;
26594;SDS011;14238;49.496;8.154;2022-12-07T01:54:19;6.90;;;6.30;;
26594;SDS011;14238;49.496;8.154;2022-12-07T01:56:50;6.77;;;6.17;;
26594;SDS011;14238;49.496;8.154;2022-12-07T01:59:18;6.90;;;6.30;;
26594;SDS011;14238;49.496;8.154;2022-12-07T02:01:46;8.60;;;6.00;;
26594;SDS011;14238;49.496;8.154;2022-12-07T02:04:12;6.77;;;5.87;;
26594;SDS011;14238;49.496;8.154;2022-12-07T02:06:37;6.60;;;6.00;;
26594;SDS011;14238;49.496;8.154;2022-12-07T02:09:04;5.60;;;4.93;;
26594;SDS011;14238;49.496;8.154;2022-12-07T02:11:29;6.17;;;5.57;;
26594;SDS011;14238;49.496;8.154;2022-12-07T02:13:56;6.37;;;5.77;;
26594;SDS011;14238;49.496;8.154;2022-12-07T02:16:31;6.07;;;5.20;;
26594;SDS011;14238;49.496;8.154;2022-12-07T02:19:24;5.50;;;4.97;;
26594;SDS011;14238;49.496;8.154;2022-12-07T02:31:18;6.20;;;5.60;;
26594;SDS011;14238;49.496;8.154;2022-12-07T02:33:51;5.00;;;4.50;;
26594;SDS011;14238;49.496;8.154;2022-12-07T02:36:25;4.30;;;3.90;;
26594;SDS011;14238;49.496;8.154;2022-12-07T02:41:35;5.10;;;4.60;;
26594;SDS011;14238;49.496;8.154;2022-12-07T02:44:13;5.40;;;4.90;;
26594;SDS011;14238;49.496;8.154;2022-12-07T02:46:46;5.20;;;4.70;;
26594;SDS011;14238;49.496;8.154;2022-12-07T02:49:22;5.20;;;4.70;;
26594;SDS011;14238;49.496;8.154;2022-12-07T02:51:49;5.00;;;4.50;;
26594;SDS011;14238;49.496;8.154;2022-12-07T02:54:16;4.57;;;4.17;;
26594;SDS011;14238;49.496;8.154;2022-12-07T03:04:53;5.23;;;4.73;;
26594;SDS011;14238;49.496;8.154;2022-12-07T03:07:32;5.33;;;4.83;;
26594;SDS011;14238;49.496;8.154;2022-12-07T03:10:09;4.50;;;4.10;;
26594;SDS011;14238;49.496;8.154;2022-12-07T03:12:50;5.17;;;4.47;;
26594;SDS011;14238;49.496;8.154;2022-12-07T03:15:21;9.00;;;5.33;;
26594;SDS011;14238;49.496;8.154;2022-12-07T03:17:54;5.37;;;4.87;;
26594;SDS011;14238;49.496;8.154;2022-12-07T03:20:22;4.63;;;4.23;;
26594;SDS011;14238;49.496;8.154;2022-12-07T03:22:50;5.17;;;4.70;;
26594;SDS011;14238;49.496;8.154;2022-12-07T03:25:18;5.57;;;4.47;;
26594;SDS011;14238;49.496;8.154;2022-12-07T03:27:48;4.70;;;4.30;;
26594;SDS011;14238;49.496;8.154;2022-12-07T03:30:21;8.53;;;4.40;;
26594;SDS011;14238;49.496;8.154;2022-12-07T03:32:53;4.53;;;4.10;;
26594;SDS011;14238;49.496;8.154;2022-12-07T03:35:33;4.33;;;3.93;;
26594;SDS011;14238;49.496;8.154;2022-12-07T03:38:06;4.60;;;4.20;;
26594;SDS011;14238;49.496;8.154;2022-12-07T03:40:40;4.10;;;3.80;;
26594;SDS011;14238;49.496;8.154;2022-12-07T03:43:28;4.87;;;4.30;;
26594;SDS011;14238;49.496;8.154;2022-12-07T03:46:15;5.00;;;4.50;;
26594;SDS011;14238;49.496;8.154;2022-12-07T03:48:59;4.03;;;3.70;;
26594;SDS011;14238;49.496;8.154;2022-12-07T03:51:42;5.60;;;5.10;;
26594;SDS011;14238;49.496;8.154;2022-12-07T03:54:30;4.57;;;4.13;;
26594;SDS011;14238;49.496;8.154;2022-12-07T03:57:02;5.00;;;4.50;;
26594;SDS011;14238;49.496;8.154;2022-12-07T03:59:29;5.50;;;4.37;;
26594;SDS011;14238;49.496;8.154;2022-12-07T04:01:56;5.43;;;4.90;;
26594;SDS011;14238;49.496;8.154;2022-12-07T04:04:26;5.03;;;4.43;;
26594;SDS011;14238;49.496;8.154;2022-12-07T04:06:52;4.73;;;4.33;;
26594;SDS011;14238;49.496;8.154;2022-12-07T04:09:18;5.50;;;5.00;;
26594;SDS011;14238;49.496;8.154;2022-12-07T04:11:44;5.83;;;5.23;;
26594;SDS011;14238;49.496;8.154;2022-12-07T04:14:09;5.40;;;4.90;;
26594;SDS011;14238;49.496;8.154;2022-12-07T04:16:45;6.23;;;5.10;;
26594;SDS011;14238;49.496;8.154;2022-12-07T04:19:14;7.03;;;5.17;;
26594;SDS011;14238;49.496;8.154;2022-12-07T04:21:41;6.07;;;5.47;;
26594;SDS011;14238;49.496;8.154;2022-12-07T04:24:07;5.87;;;5.27;;
26594;SDS011;14238;49.496;8.154;2022-12-07T04:26:33;5.90;;;5.30;;
26594;SDS011;14238;49.496;8.154;2022-12-07T04:28:58;7.20;;;5.73;;
26594;SDS011;14238;49.496;8.154;2022-12-07T04:31:24;9.07;;;6.10;;
26594;SDS011;14238;49.496;8.154;2022-12-07T04:33:50;7.53;;;5.80;;
26594;SDS011;14238;49.496;8.154;2022-12-07T04:36:15;6.90;;;6.13;;
26594;SDS011;14238;49.496;8.154;2022-12-07T04:38:41;6.70;;;6.00;;
26594;SDS011;14238;49.496;8.154;2022-12-07T04:41:07;7.00;;;6.10;;
26594;SDS011;14238;49.496;8.154;2022-12-07T04:43:34;6.80;;;6.20;;
26594;SDS011;14238;49.496;8.154;2022-12-07T04:45:59;6.23;;;5.63;;
26594;SDS011;14238;49.496;8.154;2022-12-07T04:48:25;7.00;;;5.83;;
26594;SDS011;14238;49.496;8.154;2022-12-07T04:50:51;5.70;;;4.93;;
26594;SDS011;14238;49.496;8.154;2022-12-07T04:53:17;7.13;;;6.43;;
26594;SDS011;14238;49.496;8.154;2022-12-07T04:55:43;6.33;;;5.70;;
26594;SDS011;14238;49.496;8.154;2022-12-07T04:58:10;7.00;;;5.67;;
26594;SDS011;14238;49.496;8.154;2022-12-07T05:00:35;7.20;;;5.97;;
26594;SDS011;14238;49.496;8.154;2022-12-07T05:03:01;7.80;;;5.93;;
26594;SDS011;14238;49.496;8.154;2022-12-07T05:05:27;8.17;;;6.93;;
26594;SDS011;14238;49.496;8.154;2022-12-07T05:07:52;6.70;;;6.10;;
26594;SDS011;14238;49.496;8.154;2022-12-07T05:10:18;6.87;;;6.17;;
26594;SDS011;14238;49.496;8.154;2022-12-07T05:12:44;7.97;;;6.67;;
26594;SDS011;14238;49.496;8.154;2022-12-07T05:15:10;7.90;;;7.10;;
26594;SDS011;14238;49.496;8.154;2022-12-07T05:17:36;9.57;;;8.50;;
26594;SDS011;14238;49.496;8.154;2022-12-07T05:20:02;13.73;;;9.00;;
26594;SDS011;14238;49.496;8.154;2022-12-07T05:22:28;10.43;;;9.43;;
26594;SDS011;14238;49.496;8.154;2022-12-07T05:24:54;10.27;;;9.17;;
26594;SDS011;14238;49.496;8.154;2022-12-07T05:27:20;10.13;;;9.13;;
26594;SDS011;14238;49.496;8.154;2022-12-07T05:29:46;8.20;;;7.30;;
26594;SDS011;14238;49.496;8.154;2022-12-07T05:32:12;8.47;;;7.30;;
26594;SDS011;14238;49.496;8.154;2022-12-07T05:34:37;8.10;;;6.50;;
26594;SDS011;14238;49.496;8.154;2022-12-07T05:37:03;8.87;;;7.97;;
26594;SDS011;14238;49.496;8.154;2022-12-07T05:39:29;9.00;;;7.80;;
26594;SDS011;14238;49.496;8.154;2022-12-07T05:41:54;7.83;;;6.67;;
26594;SDS011;14238;49.496;8.154;2022-12-07T05:44:38;8.33;;;7.00;;
26594;SDS011;14238;49.496;8.154;2022-12-07T05:47:05;8.10;;;7.17;;
26594;SDS011;14238;49.496;8.154;2022-12-07T05:49:30;6.87;;;6.13;;
26594;SDS011;14238;49.496;8.154;2022-12-07T05:51:56;8.43;;;7.00;;
26594;SDS011;14238;49.496;8.154;2022-12-07T05:54:22;7.63;;;6.80;;
26594;SDS011;14238;49.496;8.154;2022-12-07T05:56:47;7.67;;;6.70;;
26594;SDS011;14238;49.496;8.154;2022-12-07T05:59:13;9.27;;;8.43;;
26594;SDS011;14238;49.496;8.154;2022-12-07T06:01:51;8.60;;;7.70;;
26594;SDS011;14238;49.496;8.154;2022-12-07T06:04:24;10.50;;;8.37;;
26594;SDS011;14238;49.496;8.154;2022-12-07T06:06:52;8.77;;;7.87;;
26594;SDS011;14238;49.496;8.154;2022-12-07T06:09:18;8.43;;;7.33;;
26594;SDS011;14238;49.496;8.154;2022-12-07T06:11:45;8.97;;;8.13;;
26594;SDS011;14238;49.496;8.154;2022-12-07T06:14:29;10.27;;;8.40;;
26594;SDS011;14238;49.496;8.154;2022-12-07T06:16:55;9.40;;;8.40;;
26594;SDS011;14238;49.496;8.154;2022-12-07T06:19:21;9.53;;;8.37;;
26594;SDS011;14238;49.496;8.154;2022-12-07T06:21:46;9.33;;;8.43;;
26594;SDS011;14238;49.496;8.154;2022-12-07T06:24:12;9.13;;;8.23;;
26594;SDS011;14238;49.496;8.154;2022-12-07T06:26:40;9.40;;;8.50;;
26594;SDS011;14238;49.496;8.154;2022-12-07T06:29:06;10.47;;;8.40;;
26594;SDS011;14238;49.496;8.154;2022-12-07T06:31:34;9.80;;;8.70;;
26594;SDS011;14238;49.496;8.154;2022-12-07T06:34:01;9.20;;;8.30;;
26594;SDS011;14238;49.496;8.154;2022-12-07T06:36:29;9.50;;;8.60;;
26594;SDS011;14238;49.496;8.154;2022-12-07T06:38:55;10.63;;;9.53;;
26594;SDS011;14238;49.496;8.154;2022-12-07T06:41:21;13.13;;;8.90;;
26594;SDS011;14238;49.496;8.154;2022-12-07T06:43:47;9.17;;;8.17;;
26594;SDS011;14238;49.496;8.154;2022-12-07T06:46:13;10.13;;;8.77;;
26594;SDS011;14238;49.496;8.154;2022-12-07T06:48:39;9.20;;;8.17;;
26594;SDS011;14238;49.496;8.154;2022-12-07T06:51:05;9.70;;;8.10;;
26594;SDS011;14238;49.496;8.154;2022-12-07T06:53:31;9.93;;;8.93;;
26594;SDS011;14238;49.496;8.154;2022-12-07T06:55:56;9.23;;;8.20;;
26594;SDS011;14238;49.496;8.154;2022-12-07T06:58:22;9.47;;;8.40;;
26594;SDS011;14238;49.496;8.154;2022-12-07T07:00:48;8.93;;;7.50;;
26594;SDS011;14238;49.496;8.154;2022-12-07T07:03:15;10.40;;;9.00;;
26594;SDS011;14238;49.496;8.154;2022-12-07T07:05:41;11.67;;;8.30;;
26594;SDS011;14238;49.496;8.154;2022-12-07T07:08:07;9.87;;;8.60;;
26594;SDS011;14238;49.496;8.154;2022-12-07T07:10:33;8.73;;;7.93;;
26594;SDS011;14238;49.496;8.154;2022-12-07T07:12:59;10.13;;;8.43;;
26594;SDS011;14238;49.496;8.154;2022-12-07T07:15:24;9.50;;;8.50;;
26594;SDS011;14238;49.496;8.154;2022-12-07T07:17:50;8.30;;;7.50;;
26594;SDS011;14238;49.496;8.154;2022-12-07T07:20:15;9.60;;;8.57;;
26594;SDS011;14238;49.496;8.154;2022-12-07T07:22:41;10.60;;;9.07;;
26594;SDS011;14238;49.496;8.154;2022-12-07T07:25:06;11.33;;;8.30;;
26594;SDS011;14238;49.496;8.154;2022-12-07T07:27:32;9.57;;;8.37;;
26594;SDS011;14238;49.496;8.154;2022-12-07T07:29:58;10.97;;;9.30;;
26594;SDS011;14238;49.496;8.154;2022-12-07T07:32:23;12.07;;;9.37;;
26594;SDS011;14238;49.496;8.154;2022-12-07T07:34:49;8.80;;;7.90;;
26594;SDS011;14238;49.496;8.154;2022-12-07T07:37:14;9.30;;;8.33;;
26594;SDS011;14238;49.496;8.154;2022-12-07T07:39:40;10.20;;;7.80;;
26594;SDS011;14238;49.496;8.154;2022-12-07T07:42:06;9.80;;;7.70;;
26594;SDS011;14238;49.496;8.154;2022-12-07T07:44:32;9.87;;;8.90;;
26594;SDS011;14238;49.496;8.154;2022-12-07T07:46:58;8.67;;;7.87;;
26594;SDS011;14238;49.496;8.154;2022-12-07T07:49:24;10.20;;;9.13;;
26594;SDS011;14238;49.496;8.154;2022-12-07T07:51:50;7.80;;;7.00;;
26594;SDS011;14238;49.496;8.154;2022-12-07T07:54:16;9.93;;;7.67;;
26594;SDS011;14238;49.496;8.154;2022-12-07T07:56:41;9.00;;;8.10;;
26594;SDS011;14238;49.496;8.154;2022-12-07T07:59:07;8.77;;;7.87;;
26594;SDS011;14238;49.496;8.154;2022-12-07T08:01:33;8.67;;;7.63;;
26594;SDS011;14238;49.496;8.154;2022-12-07T08:03:58;8.10;;;7.30;;
26594;SDS011;14238;49.496;8.154;2022-12-07T08:06:24;10.00;;;8.10;;
26594;SDS011;14238;49.496;8.154;2022-12-07T08:08:50;8.10;;;7.07;;
26594;SDS011;14238;49.496;8.154;2022-12-07T08:11:15;8.63;;;7.70;;
26594;SDS011;14238;49.496;8.154;2022-12-07T08:13:41;8.87;;;8.00;;
26594;SDS011;14238;49.496;8.154;2022-12-07T08:16:09;12.37;;;10.37;;
26594;SDS011;14238;49.496;8.154;2022-12-07T08:18:36;10.90;;;9.80;;
26594;SDS011;14238;49.496;8.154;2022-12-07T08:21:06;8.33;;;7.53;;
26594;SDS011;14238;49.496;8.154;2022-12-07T08:23:33;9.83;;;8.60;;
26594;SDS011;14238;49.496;8.154;2022-12-07T08:26:00;10.00;;;8.83;;
26594;SDS011;14238;49.496;8.154;2022-12-07T08:28:27;12.90;;;9.47;;
26594;SDS011;14238;49.496;8.154;2022-12-07T08:30:58;9.60;;;8.20;;
26594;SDS011;14238;49.496;8.154;2022-12-07T08:33:26;9.67;;;8.67;;
26594;SDS011;14238;49.496;8.154;2022-12-07T08:35:51;9.80;;;8.60;;
26594;SDS011;14238;49.496;8.154;2022-12-07T08:38:17;11.47;;;9.57;;
26594;SDS011;14238;49.496;8.154;2022-12-07T08:40:43;9.63;;;8.10;;
26594;SDS011;14238;49.496;8.154;2022-12-07T08:43:08;8.50;;;7.67;;
26594;SDS011;14238;49.496;8.154;2022-12-07T08:45:34;10.43;;;7.93;;
26594;SDS011;14238;49.496;8.154;2022-12-07T08:48:04;9.60;;;8.60;;
26594;SDS011;14238;49.496;8.154;2022-12-07T08:50:32;10.37;;;9.07;;
26594;SDS011;14238;49.496;8.154;2022-12-07T08:53:01;8.90;;;8.00;;
26594;SDS011;14238;49.496;8.154;2022-12-07T08:55:29;8.60;;;7.70;;
26594;SDS011;14238;49.496;8.154;2022-12-07T08:57:57;9.60;;;8.20;;
26594;SDS011;14238;49.496;8.154;2022-12-07T09:00:23;9.17;;;7.90;;
26594;SDS011;14238;49.496;8.154;2022-12-07T09:02:50;10.50;;;8.10;;
26594;SDS011;14238;49.496;8.154;2022-12-07T09:05:15;9.93;;;8.77;;
26594;SDS011;14238;49.496;8.154;2022-12-07T09:07:42;9.50;;;8.47;;
26594;SDS011;14238;49.496;8.154;2022-12-07T09:10:11;8.63;;;7.63;;
26594;SDS011;14238;49.496;8.154;2022-12-07T09:12:36;9.07;;;8.10;;
26594;SDS011;14238;49.496;8.154;2022-12-07T09:15:02;8.73;;;7.83;;
26594;SDS011;14238;49.496;8.154;2022-12-07T09:17:31;11.20;;;9.23;;
26594;SDS011;14238;49.496;8.154;2022-12-07T09:19:58;10.60;;;9.03;;
26594;SDS011;14238;49.496;8.154;2022-12-07T09:22:27;10.97;;;8.90;;
26594;SDS011;14238;49.496;8.154;2022-12-07T09:24:54;8.60;;;7.77;;
26594;SDS011;14238;49.496;8.154;2022-12-07T09:27:20;9.07;;;8.17;;
26594;SDS011;14238;49.496;8.154;2022-12-07T09:29:45;9.10;;;8.20;;
26594;SDS011;14238;49.496;8.154;2022-12-07T09:32:11;8.60;;;7.70;;
26594;SDS011;14238;49.496;8.154;2022-12-07T09:34:36;11.00;;;8.83;;
26594;SDS011;14238;49.496;8.154;2022-12-07T09:37:02;9.83;;;8.80;;
26594;SDS011;14238;49.496;8.154;2022-12-07T09:39:28;8.60;;;7.70;;
26594;SDS011;14238;49.496;8.154;2022-12-07T09:41:54;9.20;;;8.10;;
26594;SDS011;14238;49.496;8.154;2022-12-07T09:44:23;9.57;;;8.47;;
26594;SDS011;14238;49.496;8.154;2022-12-07T09:46:51;8.70;;;7.80;;
26594;SDS011;14238;49.496;8.154;2022-12-07T09:49:19;8.97;;;7.97;;
26594;SDS011;14238;49.496;8.154;2022-12-07T09:51:47;10.23;;;8.90;;
26594;SDS011;14238;49.496;8.154;2022-12-07T09:54:13;10.30;;;7.03;;
26594;SDS011;14238;49.496;8.154;2022-12-07T09:56:40;9.53;;;8.53;;
26594;SDS011;14238;49.496;8.154;2022-12-07T09:59:09;9.63;;;8.50;;
26594;SDS011;14238;49.496;8.154;2022-12-07T10:01:40;9.30;;;7.83;;
26594;SDS011;14238;49.496;8.154;2022-12-07T10:04:11;10.47;;;7.97;;
26594;SDS011;14238;49.496;8.154;2022-12-07T10:06:41;8.57;;;7.67;;
26594;SDS011;14238;49.496;8.154;2022-12-07T10:09:08;8.70;;;7.80;;
26594;SDS011;14238;49.496;8.154;2022-12-07T10:11:35;10.13;;;7.43;;
26594;SDS011;14238;49.496;8.154;2022-12-07T10:14:33;8.80;;;7.90;;
26594;SDS011;14238;49.496;8.154;2022-12-07T10:17:01;7.70;;;7.00;;
26594;SDS011;14238;49.496;8.154;2022-12-07T10:19:28;7.20;;;6.20;;
26594;SDS011;14238;49.496;8.154;2022-12-07T10:24:30;6.67;;;6.00;;
26594;SDS011;14238;49.496;8.154;2022-12-07T10:26:56;7.10;;;6.40;;
26594;SDS011;14238;49.496;8.154;2022-12-07T10:29:24;7.13;;;6.43;;
26594;SDS011;14238;49.496;8.154;2022-12-07T10:31:58;7.53;;;6.27;;
26594;SDS011;14238;49.496;8.154;2022-12-07T10:34:28;7.40;;;6.43;;
26594;SDS011;14238;49.496;8.154;2022-12-07T10:37:37;6.10;;;5.50;;
26594;SDS011;14238;49.496;8.154;2022-12-07T10:42:22;7.80;;;7.03;;
26594;SDS011;14238;49.496;8.154;2022-12-07T10:44:49;7.83;;;7.03;;
26594;SDS011;14238;49.496;8.154;2022-12-07T10:47:36;7.37;;;6.20;;
26594;SDS011;14238;49.496;8.154;2022-12-07T10:59:16;7.07;;;6.23;;
26594;SDS011;14238;49.496;8.154;2022-12-07T11:05:24;7.33;;;6.40;;
26594;SDS011;14238;49.496;8.154;2022-12-07T11:08:03;8.60;;;6.53;;
26594;SDS011;14238;49.496;8.154;2022-12-07T11:10:55;6.63;;;5.57;;
26594;SDS011;14238;49.496;8.154;2022-12-07T11:16:34;6.07;;;5.47;;
26594;SDS011;14238;49.496;8.154;2022-12-07T11:19:19;5.70;;;5.20;;
26594;SDS011;14238;49.496;8.154;2022-12-07T11:21:56;16.00;;;10.50;;
26594;SDS011;14238;49.496;8.154;2022-12-07T11:24:27;6.07;;;5.20;;
26594;SDS011;14238;49.496;8.154;2022-12-07T11:27:24;6.80;;;6.10;;
26594;SDS011;14238;49.496;8.154;2022-12-07T11:30:06;7.13;;;5.43;;
26594;SDS011;14238;49.496;8.154;2022-12-07T11:32:56;8.80;;;7.97;;
26594;SDS011;14238;49.496;8.154;2022-12-07T11:38:08;6.77;;;6.17;;
26594;SDS011;14238;49.496;8.154;2022-12-07T11:40:48;15.87;;;12.93;;
26594;SDS011;14238;49.496;8.154;2022-12-07T11:43:29;10.73;;;9.70;;
26594;SDS011;14238;49.496;8.154;2022-12-07T11:46:33;9.90;;;8.90;;
26594;SDS011;14238;49.496;8.154;2022-12-07T11:48:55;16.67;;;15.23;;
26594;SDS011;14238;49.496;8.154;2022-12-07T11:51:28;4.97;;;4.33;;
26594;SDS011;14238;49.496;8.154;2022-12-07T11:53:59;5.03;;;4.53;;
26594;SDS011;14238;49.496;8.154;2022-12-07T11:56:34;5.40;;;4.97;;
26594;SDS011;14238;49.496;8.154;2022-12-07T12:01:55;4.20;;;3.80;;
26594;SDS011;14238;49.496;8.154;2022-12-07T12:07:07;4.33;;;3.93;;
26594;SDS011;14238;49.496;8.154;2022-12-07T12:09:45;3.77;;;3.40;;
26594;SDS011;14238;49.496;8.154;2022-12-07T12:15:42;4.43;;;4.00;;
26594;SDS011;14238;49.496;8.154;2022-12-07T12:21:06;4.10;;;3.77;;
26594;SDS011;14238;49.496;8.154;2022-12-07T12:23:39;4.40;;;3.83;;
26594;SDS011;14238;49.496;8.154;2022-12-07T12:26:19;4.70;;;3.50;;
26594;SDS011;14238;49.496;8.154;2022-12-07T12:28:57;5.13;;;3.90;;
26594;SDS011;14238;49.496;8.154;2022-12-07T12:31:31;3.57;;;3.20;;
26594;SDS011;14238;49.496;8.154;2022-12-07T12:34:02;4.07;;;3.77;;
26594;SDS011;14238;49.496;8.154;2022-12-07T12:39:14;3.63;;;3.33;;
26594;SDS011;14238;49.496;8.154;2022-12-07T12:49:34;5.07;;;4.00;;
26594;SDS011;14238;49.496;8.154;2022-12-07T12:54:39;3.70;;;3.40;;
26594;SDS011;14238;49.496;8.154;2022-12-07T12:57:26;5.77;;;4.00;;
26594;SDS011;14238;49.496;8.154;2022-12-07T13:02:32;3.83;;;3.53;;
26594;SDS011;14238;49.496;8.154;2022-12-07T13:05:02;4.00;;;3.70;;
26594;SDS011;14238;49.496;8.154;2022-12-07T13:15:31;3.10;;;2.90;;
26594;SDS011;14238;49.496;8.154;2022-12-07T13:23:10;3.70;;;3.07;;
26594;SDS011;14238;49.496;8.154;2022-12-07T13:25:38;3.30;;;3.10;;
26594;SDS011;14238;49.496;8.154;2022-12-07T13:28:16;3.60;;;2.40;;
26594;SDS011;14238;49.496;8.154;2022-12-07T13:31:00;3.27;;;2.90;;
26594;SDS011;14238;49.496;8.154;2022-12-07T13:33:46;5.43;;;3.43;;
26594;SDS011;14238;49.496;8.154;2022-12-07T13:36:19;3.73;;;3.43;;
26594;SDS011;14238;49.496;8.154;2022-12-07T13:38:52;3.23;;;2.83;;
26594;SDS011;14238;49.496;8.154;2022-12-07T13:41:20;3.13;;;2.80;;
26594;SDS011;14238;49.496;8.154;2022-12-07T13:44:02;3.70;;;3.40;;
26594;SDS011;14238;49.496;8.154;2022-12-07T13:49:27;3.10;;;2.90;;
26594;SDS011;14238;49.496;8.154;2022-12-07T13:51:54;3.23;;;2.93;;
26594;SDS011;14238;49.496;8.154;2022-12-07T13:54:43;4.80;;;2.97;;
26594;SDS011;14238;49.496;8.154;2022-12-07T13:57:09;4.40;;;4.03;;
26594;SDS011;14238;49.496;8.154;2022-12-07T13:59:35;3.20;;;2.97;;
26594;SDS011;14238;49.496;8.154;2022-12-07T14:02:02;5.20;;;3.27;;
26594;SDS011;14238;49.496;8.154;2022-12-07T14:04:42;3.57;;;3.23;;
26594;SDS011;14238;49.496;8.154;2022-12-07T14:07:27;3.47;;;3.10;;
26594;SDS011;14238;49.496;8.154;2022-12-07T14:09:54;3.57;;;2.97;;
26594;SDS011;14238;49.496;8.154;2022-12-07T14:12:29;4.50;;;3.00;;
26594;SDS011;14238;49.496;8.154;2022-12-07T14:14:55;4.07;;;3.17;;
26594;SDS011;14238;49.496;8.154;2022-12-07T14:17:23;3.17;;;2.87;;
26594;SDS011;14238;49.496;8.154;2022-12-07T14:19:57;2.80;;;2.60;;
26594;SDS011;14238;49.496;8.154;2022-12-07T14:22:35;3.20;;;2.90;;
26594;SDS011;14238;49.496;8.154;2022-12-07T14:27:52;2.80;;;2.60;;
26594;SDS011;14238;49.496;8.154;2022-12-07T14:30:24;4.87;;;2.93;;
26594;SDS011;14238;49.496;8.154;2022-12-07T14:32:58;4.37;;;3.00;;
26594;SDS011;14238;49.496;8.154;2022-12-07T14:35:25;3.23;;;3.03;;
26594;SDS011;14238;49.496;8.154;2022-12-07T14:37:52;3.00;;;2.70;;
26594;SDS011;14238;49.496;8.154;2022-12-07T14:40:21;4.03;;;2.67;;
26594;SDS011;14238;49.496;8.154;2022-12-07T14:42:52;3.50;;;3.03;;
26594;SDS011;14238;49.496;8.154;2022-12-07T14:45:22;5.03;;;3.03;;
26594;SDS011;14238;49.496;8.154;2022-12-07T14:47:48;3.13;;;2.93;;
26594;SDS011;14238;49.496;8.154;2022-12-07T14:50:18;3.07;;;2.83;;
26594;SDS011;14238;49.496;8.154;2022-12-07T14:52:46;2.63;;;2.43;;
26594;SDS011;14238;49.496;8.154;2022-12-07T14:55:28;2.50;;;2.40;;
26594;SDS011;14238;49.496;8.154;2022-12-07T14:57:55;2.67;;;2.10;;
26594;SDS011;14238;49.496;8.154;2022-12-07T15:00:22;4.93;;;2.50;;
26594;SDS011;14238;49.496;8.154;2022-12-07T15:02:49;3.90;;;3.60;;
26594;SDS011;14238;49.496;8.154;2022-12-07T15:05:16;4.03;;;3.23;;
26594;SDS011;14238;49.496;8.154;2022-12-07T15:07:43;3.97;;;3.63;;
26594;SDS011;14238;49.496;8.154;2022-12-07T15:10:17;2.90;;;2.30;;
26594;SDS011;14238;49.496;8.154;2022-12-07T15:12:47;3.63;;;3.30;;
26594;SDS011;14238;49.496;8.154;2022-12-07T15:15:12;3.60;;;2.77;;
26594;SDS011;14238;49.496;8.154;2022-12-07T15:17:38;3.20;;;2.90;;
26594;SDS011;14238;49.496;8.154;2022-12-07T15:20:04;3.27;;;3.07;;
26594;SDS011;14238;49.496;8.154;2022-12-07T15:22:30;4.70;;;3.80;;
26594;SDS011;14238;49.496;8.154;2022-12-07T15:24:56;7.37;;;4.13;;
26594;SDS011;14238;49.496;8.154;2022-12-07T15:27:22;4.20;;;3.80;;
26594;SDS011;14238;49.496;8.154;2022-12-07T15:29:48;4.13;;;3.70;;
26594;SDS011;14238;49.496;8.154;2022-12-07T15:32:14;4.07;;;3.67;;
26594;SDS011;14238;49.496;8.154;2022-12-07T15:34:39;3.73;;;3.43;;
26594;SDS011;14238;49.496;8.154;2022-12-07T15:37:05;4.17;;;3.87;;
26594;SDS011;14238;49.496;8.154;2022-12-07T15:39:31;4.53;;;3.83;;
26594;SDS011;14238;49.496;8.154;2022-12-07T15:41:57;3.17;;;2.90;;
26594;SDS011;14238;49.496;8.154;2022-12-07T15:44:22;3.60;;;3.30;;
26594;SDS011;14238;49.496;8.154;2022-12-07T15:47:07;5.83;;;3.90;;
26594;SDS011;14238;49.496;8.154;2022-12-07T15:49:32;5.50;;;5.00;;
26594;SDS011;14238;49.496;8.154;2022-12-07T15:51:58;4.93;;;4.50;;
26594;SDS011;14238;49.496;8.154;2022-12-07T15:54:25;4.90;;;4.40;;
26594;SDS011;14238;49.496;8.154;2022-12-07T15:56:52;4.07;;;3.70;;
26594;SDS011;14238;49.496;8.154;2022-12-07T15:59:18;5.17;;;4.67;;
26594;SDS011;14238;49.496;8.154;2022-12-07T16:01:43;4.87;;;4.40;;
26594;SDS011;14238;49.496;8.154;2022-12-07T16:04:09;4.13;;;3.73;;
26594;SDS011;14238;49.496;8.154;2022-12-07T16:06:35;5.10;;;4.60;;
26594;SDS011;14238;49.496;8.154;2022-12-07T16:09:01;5.17;;;4.67;;
26594;SDS011;14238;49.496;8.154;2022-12-07T16:11:26;5.97;;;5.13;;
26594;SDS011;14238;49.496;8.154;2022-12-07T16:13:52;4.93;;;4.43;;
26594;SDS011;14238;49.496;8.154;2022-12-07T16:16:18;5.37;;;4.87;;
26594;SDS011;14238;49.496;8.154;2022-12-07T16:18:45;5.10;;;4.70;;
26594;SDS011;14238;49.496;8.154;2022-12-07T16:21:12;6.03;;;5.17;;
26594;SDS011;14238;49.496;8.154;2022-12-07T16:23:38;5.50;;;4.93;;
26594;SDS011;14238;49.496;8.154;2022-12-07T16:26:08;6.83;;;4.97;;
26594;SDS011;14238;49.496;8.154;2022-12-07T16:28:38;5.93;;;5.33;;
26594;SDS011;14238;49.496;8.154;2022-12-07T16:31:08;5.70;;;5.10;;